PWSweather.com
Personal Weather Stations
Station Observations
KMILAPEE3
Lapeer Michigan, Lapeer, MI 48446

Lapeer MichiganLapeer, MI 48446

Lat: 43.057, Lon: -83.362

Elevation: 897

Station Type: Oregon Scientific WMR-968

Latest ConditionsUpdated 4:20:56 AM EST Saturday, Jan 20, 2018
Currently Today's Max Today's Min Today's Average
Temperature 35.8°F2.1°C 37.8°F3.2°C 35.8°F2.1°C 37.0°F2.8°C
Dew Point 18.0°F-7.8°C 19.3°F-7.1°C 18.0°F-7.8°C 18.7°F-7.4°C
Winds 11.0 mph SW17.7 kmh SW 23.0 mph SW37.0 kmh SW - 15.8 mph 25.4 kmh
Wind Gusts 23.0 mph37.0 kmh 38.0 mph61.2 kmh - -
Humidity 48% 48% 46% 47%
Pressure 28.79 in974.9 mb 28.79 in974.9 mb 28.73 in972.9 mb -
Hour Temp Dew Point Humidity Winds Wind Gusts Pressure Precip Precip Rate Daily Precip Total
04:20 AM 35.8°F2.1°C 18.0°F-7.8°C 48% 10.0 mph SW16.1 kmh SW 23.0 mph37.0 kmh 28.79 in974.9 mb 0.00 in0.0 mm 0.00 in0.0 mm 0.00 in0.0 mm
04:19 AM 35.8°F2.1°C 18.0°F-7.8°C 48% 10.0 mph SW16.1 kmh SW 22.0 mph35.4 kmh 28.79 in974.9 mb 0.00 in0.0 mm 0.00 in0.0 mm 0.00 in0.0 mm
04:18 AM 35.8°F2.1°C 18.0°F-7.8°C 48% 11.0 mph WSW17.7 kmh WSW 22.0 mph35.4 kmh 28.79 in974.9 mb 0.00 in0.0 mm 0.00 in0.0 mm 0.00 in0.0 mm
04:17 AM 35.8°F2.1°C 18.0°F-7.8°C 48% 10.0 mph WSW16.1 kmh WSW 29.0 mph46.7 kmh 28.79 in974.9 mb 0.00 in0.0 mm 0.00 in0.0 mm 0.00 in0.0 mm
04:16 AM 35.8°F2.1°C 18.0°F-7.8°C 48% 10.0 mph WSW16.1 kmh WSW 29.0 mph46.7 kmh 28.79 in974.9 mb 0.00 in0.0 mm 0.00 in0.0 mm 0.00 in0.0 mm
04:15 AM 36.0°F2.2°C 18.2°F-7.7°C 48% 11.0 mph SW17.7 kmh SW 29.0 mph46.7 kmh 28.79 in974.9 mb 0.00 in0.0 mm 0.00 in0.0 mm 0.00 in0.0 mm
04:14 AM 36.0°F2.2°C 18.2°F-7.7°C 48% 11.0 mph SW17.7 kmh SW 29.0 mph46.7 kmh 28.79 in974.9 mb 0.00 in0.0 mm 0.00 in0.0 mm 0.00 in0.0 mm
04:13 AM 36.0°F2.2°C 18.2°F-7.7°C 48% 12.0 mph SW19.3 kmh SW 29.0 mph46.7 kmh 28.79 in974.9 mb 0.00 in0.0 mm 0.00 in0.0 mm 0.00 in0.0 mm
04:12 AM 36.1°F2.3°C 18.3°F-7.6°C 48% 13.0 mph SW20.9 kmh SW 29.0 mph46.7 kmh 28.79 in974.9 mb 0.00 in0.0 mm 0.00 in0.0 mm 0.00 in0.0 mm
04:11 AM 36.1°F2.3°C 18.3°F-7.6°C 48% 14.0 mph WSW22.5 kmh WSW 29.0 mph46.7 kmh 28.79 in974.9 mb 0.00 in0.0 mm 0.00 in0.0 mm 0.00 in0.0 mm
04:10 AM 36.1°F2.3°C 18.3°F-7.6°C 48% 16.0 mph WSW25.7 kmh WSW 29.0 mph46.7 kmh 28.79 in974.9 mb 0.00 in0.0 mm 0.00 in0.0 mm 0.00 in0.0 mm
04:09 AM 36.1°F2.3°C 18.3°F-7.6°C 48% 17.0 mph WSW27.4 kmh WSW 29.0 mph46.7 kmh 28.79 in974.9 mb 0.00 in0.0 mm 0.00 in0.0 mm 0.00 in0.0 mm
04:08 AM 36.1°F2.3°C 18.3°F-7.6°C 48% 14.0 mph WSW22.5 kmh WSW 29.0 mph46.7 kmh 28.79 in974.9 mb 0.00 in0.0 mm 0.00 in0.0 mm 0.00 in0.0 mm
04:07 AM 36.1°F2.3°C 18.3°F-7.6°C 48% 12.0 mph WSW19.3 kmh WSW 26.0 mph41.8 kmh 28.79 in974.9 mb 0.00 in0.0 mm 0.00 in0.0 mm 0.00 in0.0 mm
04:06 AM 36.0°F2.2°C 18.2°F-7.7°C 48% 12.0 mph WSW19.3 kmh WSW 26.0 mph41.8 kmh 28.79 in974.9 mb 0.00 in0.0 mm 0.00 in0.0 mm 0.00 in0.0 mm
04:05 AM 36.0°F2.2°C 18.2°F-7.7°C 48% 13.0 mph WSW20.9 kmh WSW 26.0 mph41.8 kmh 28.79 in974.9 mb 0.00 in0.0 mm 0.00 in0.0 mm 0.00 in0.0 mm
04:04 AM 36.0°F2.2°C 18.2°F-7.7°C 48% 15.0 mph WSW24.1 kmh WSW 26.0 mph41.8 kmh 28.79 in974.9 mb 0.00 in0.0 mm 0.00 in0.0 mm 0.00 in0.0 mm
04:03 AM 36.0°F2.2°C 18.2°F-7.7°C 48% 14.0 mph WSW22.5 kmh WSW 26.0 mph41.8 kmh 28.79 in974.9 mb 0.00 in0.0 mm 0.00 in0.0 mm 0.00 in0.0 mm
04:02 AM 36.0°F2.2°C 18.2°F-7.7°C 48% 12.0 mph WSW19.3 kmh WSW 26.0 mph41.8 kmh 28.79 in974.9 mb 0.00 in0.0 mm 0.00 in0.0 mm 0.00 in0.0 mm
04:01 AM 36.1°F2.3°C 18.3°F-7.6°C 48% 11.0 mph WSW17.7 kmh WSW 26.0 mph41.8 kmh 28.79 in974.9 mb 0.00 in0.0 mm 0.00 in0.0 mm 0.00 in0.0 mm
04:00 AM 36.1°F2.3°C 18.3°F-7.6°C 48% 11.0 mph WSW17.7 kmh WSW 26.0 mph41.8 kmh 28.79 in974.9 mb 0.00 in0.0 mm 0.00 in0.0 mm 0.00 in0.0 mm
03:59 AM 36.1°F2.3°C 18.3°F-7.6°C 48% 14.0 mph WSW22.5 kmh WSW 26.0 mph41.8 kmh 28.79 in974.9 mb 0.00 in0.0 mm 0.00 in0.0 mm 0.00 in0.0 mm
03:58 AM 36.1°F2.3°C 18.3°F-7.6°C 48% 14.0 mph WSW22.5 kmh WSW 26.0 mph41.8 kmh 28.79 in974.9 mb 0.00 in0.0 mm 0.00 in0.0 mm 0.00 in0.0 mm
03:57 AM 36.1°F2.3°C 18.3°F-7.6°C 48% 14.0 mph WSW22.5 kmh WSW 25.0 mph40.2 kmh 28.79 in974.9 mb 0.00 in0.0 mm 0.00 in0.0 mm 0.00 in0.0 mm
03:56 AM 36.1°F2.3°C 18.3°F-7.6°C 48% 14.0 mph WSW22.5 kmh WSW 22.0 mph35.4 kmh 28.79 in974.9 mb 0.00 in0.0 mm 0.00 in0.0 mm 0.00 in0.0 mm
03:55 AM 36.1°F2.3°C 18.3°F-7.6°C 48% 14.0 mph WSW22.5 kmh WSW 22.0 mph35.4 kmh 28.79 in974.9 mb 0.00 in0.0 mm 0.00 in0.0 mm 0.00 in0.0 mm
03:54 AM 36.1°F2.3°C 18.3°F-7.6°C 48% 15.0 mph WSW24.1 kmh WSW 22.0 mph35.4 kmh 28.79 in974.9 mb 0.00 in0.0 mm 0.00 in0.0 mm 0.00 in0.0 mm
03:53 AM 36.1°F2.3°C 18.3°F-7.6°C 48% 14.0 mph WSW22.5 kmh WSW 22.0 mph35.4 kmh 28.79 in974.9 mb 0.00 in0.0 mm 0.00 in0.0 mm 0.00 in0.0 mm
03:52 AM 36.1°F2.3°C 18.3°F-7.6°C 48% 14.0 mph WSW22.5 kmh WSW 22.0 mph35.4 kmh 28.79 in974.9 mb 0.00 in0.0 mm 0.00 in0.0 mm 0.00 in0.0 mm
03:51 AM 36.1°F2.3°C 18.3°F-7.6°C 48% 14.0 mph WSW22.5 kmh WSW 22.0 mph35.4 kmh 28.79 in974.9 mb 0.00 in0.0 mm 0.00 in0.0 mm 0.00 in0.0 mm
03:50 AM 36.1°F2.3°C 18.3°F-7.6°C 48% 13.0 mph WSW20.9 kmh WSW 22.0 mph35.4 kmh 28.79 in974.9 mb 0.00 in0.0 mm 0.00 in0.0 mm 0.00 in0.0 mm
03:49 AM 36.1°F2.3°C 18.3°F-7.6°C 48% 13.0 mph WSW20.9 kmh WSW 22.0 mph35.4 kmh 28.79 in974.9 mb 0.00 in0.0 mm 0.00 in0.0 mm 0.00 in0.0 mm
03:48 AM 36.1°F2.3°C 18.3°F-7.6°C 48% 12.0 mph WSW19.3 kmh WSW 21.0 mph33.8 kmh 28.79 in974.9 mb 0.00 in0.0 mm 0.00 in0.0 mm 0.00 in0.0 mm
03:47 AM 36.1°F2.3°C 18.3°F-7.6°C 48% 12.0 mph WSW19.3 kmh WSW 21.0 mph33.8 kmh 28.79 in974.9 mb 0.00 in0.0 mm 0.00 in0.0 mm 0.00 in0.0 mm
03:46 AM 36.3°F2.4°C 18.5°F-7.5°C 48% 13.0 mph SW20.9 kmh SW 21.0 mph33.8 kmh 28.79 in974.9 mb 0.00 in0.0 mm 0.00 in0.0 mm 0.00 in0.0 mm
03:45 AM 36.3°F2.4°C 18.5°F-7.5°C 48% 13.0 mph WSW20.9 kmh WSW 19.0 mph30.6 kmh 28.79 in974.9 mb 0.00 in0.0 mm 0.00 in0.0 mm 0.00 in0.0 mm
03:44 AM 36.3°F2.4°C 18.5°F-7.5°C 48% 12.0 mph WSW19.3 kmh WSW 21.0 mph33.8 kmh 28.79 in974.9 mb 0.00 in0.0 mm 0.00 in0.0 mm 0.00 in0.0 mm
03:43 AM 36.3°F2.4°C 18.5°F-7.5°C 48% 12.0 mph WSW19.3 kmh WSW 22.0 mph35.4 kmh 28.76 in973.9 mb 0.00 in0.0 mm 0.00 in0.0 mm 0.00 in0.0 mm
03:42 AM 36.3°F2.4°C 18.5°F-7.5°C 48% 13.0 mph WSW20.9 kmh WSW 22.0 mph35.4 kmh 28.76 in973.9 mb 0.00 in0.0 mm 0.00 in0.0 mm 0.00 in0.0 mm
03:41 AM 36.3°F2.4°C 18.5°F-7.5°C 48% 14.0 mph WSW22.5 kmh WSW 22.0 mph35.4 kmh 28.76 in973.9 mb 0.00 in0.0 mm 0.00 in0.0 mm 0.00 in0.0 mm
03:40 AM 36.3°F2.4°C 18.5°F-7.5°C 48% 13.0 mph WSW20.9 kmh WSW 22.0 mph35.4 kmh 28.76 in973.9 mb 0.00 in0.0 mm 0.00 in0.0 mm 0.00 in0.0 mm
03:39 AM 36.3°F2.4°C 18.5°F-7.5°C 48% 12.0 mph WSW19.3 kmh WSW 22.0 mph35.4 kmh 28.76 in973.9 mb 0.00 in0.0 mm 0.00 in0.0 mm 0.00 in0.0 mm
03:36 AM 36.3°F2.4°C 18.5°F-7.5°C 48% 14.0 mph WSW22.5 kmh WSW 24.0 mph38.6 kmh 28.76 in973.9 mb 0.00 in0.0 mm 0.00 in0.0 mm 0.00 in0.0 mm
03:35 AM 36.3°F2.4°C 18.5°F-7.5°C 48% 13.0 mph WSW20.9 kmh WSW 25.0 mph40.2 kmh 28.76 in973.9 mb 0.00 in0.0 mm 0.00 in0.0 mm 0.00 in0.0 mm
03:34 AM 36.3°F2.4°C 18.5°F-7.5°C 48% 12.0 mph WSW19.3 kmh WSW 25.0 mph40.2 kmh 28.76 in973.9 mb 0.00 in0.0 mm 0.00 in0.0 mm 0.00 in0.0 mm
03:33 AM 36.5°F2.5°C 18.7°F-7.4°C 48% 14.0 mph WSW22.5 kmh WSW 25.0 mph40.2 kmh 28.76 in973.9 mb 0.00 in0.0 mm 0.00 in0.0 mm 0.00 in0.0 mm
03:32 AM 36.5°F2.5°C 18.7°F-7.4°C 48% 16.0 mph SW25.7 kmh SW 25.0 mph40.2 kmh 28.76 in973.9 mb 0.00 in0.0 mm 0.00 in0.0 mm 0.00 in0.0 mm
03:31 AM 36.5°F2.5°C 18.7°F-7.4°C 48% 17.0 mph SW27.4 kmh SW 25.0 mph40.2 kmh 28.76 in973.9 mb 0.00 in0.0 mm 0.00 in0.0 mm 0.00 in0.0 mm
03:30 AM 36.5°F2.5°C 18.7°F-7.4°C 48% 15.0 mph WSW24.1 kmh WSW 25.0 mph40.2 kmh 28.76 in973.9 mb 0.00 in0.0 mm 0.00 in0.0 mm 0.00 in0.0 mm
03:29 AM 36.5°F2.5°C 18.7°F-7.4°C 48% 13.0 mph WSW20.9 kmh WSW 25.0 mph40.2 kmh 28.76 in973.9 mb 0.00 in0.0 mm 0.00 in0.0 mm 0.00 in0.0 mm
03:28 AM 36.5°F2.5°C 18.7°F-7.4°C 48% 13.0 mph WSW20.9 kmh WSW 25.0 mph40.2 kmh 28.76 in973.9 mb 0.00 in0.0 mm 0.00 in0.0 mm 0.00 in0.0 mm
03:27 AM 36.5°F2.5°C 18.7°F-7.4°C 48% 14.0 mph WSW22.5 kmh WSW 25.0 mph40.2 kmh 28.76 in973.9 mb 0.00 in0.0 mm 0.00 in0.0 mm 0.00 in0.0 mm
03:26 AM 36.5°F2.5°C 18.7°F-7.4°C 48% 13.0 mph WSW20.9 kmh WSW 25.0 mph40.2 kmh 28.76 in973.9 mb 0.00 in0.0 mm 0.00 in0.0 mm 0.00 in0.0 mm
03:25 AM 36.5°F2.5°C 18.7°F-7.4°C 48% 13.0 mph WSW20.9 kmh WSW 24.0 mph38.6 kmh 28.76 in973.9 mb 0.00 in0.0 mm 0.00 in0.0 mm 0.00 in0.0 mm
03:24 AM 36.5°F2.5°C 18.7°F-7.4°C 48% 15.0 mph WSW24.1 kmh WSW 24.0 mph38.6 kmh 28.76 in973.9 mb 0.00 in0.0 mm 0.00 in0.0 mm 0.00 in0.0 mm
03:23 AM 36.7°F2.6°C 18.8°F-7.3°C 48% 17.0 mph WSW27.4 kmh WSW 25.0 mph40.2 kmh 28.76 in973.9 mb 0.00 in0.0 mm 0.00 in0.0 mm 0.00 in0.0 mm
03:22 AM 36.7°F2.6°C 18.8°F-7.3°C 48% 16.0 mph WSW25.7 kmh WSW 25.0 mph40.2 kmh 28.76 in973.9 mb 0.00 in0.0 mm 0.00 in0.0 mm 0.00 in0.0 mm
03:21 AM 36.7°F2.6°C 18.8°F-7.3°C 48% 13.0 mph WSW20.9 kmh WSW 25.0 mph40.2 kmh 28.76 in973.9 mb 0.00 in0.0 mm 0.00 in0.0 mm 0.00 in0.0 mm
03:20 AM 36.7°F2.6°C 18.8°F-7.3°C 48% 12.0 mph WSW19.3 kmh WSW 25.0 mph40.2 kmh 28.76 in973.9 mb 0.00 in0.0 mm 0.00 in0.0 mm 0.00 in0.0 mm
03:19 AM 36.7°F2.6°C 18.8°F-7.3°C 48% 13.0 mph SW20.9 kmh SW 25.0 mph40.2 kmh 28.76 in973.9 mb 0.00 in0.0 mm 0.00 in0.0 mm 0.00 in0.0 mm
03:18 AM 36.7°F2.6°C 18.8°F-7.3°C 48% 13.0 mph SW20.9 kmh SW 25.0 mph40.2 kmh 28.76 in973.9 mb 0.00 in0.0 mm 0.00 in0.0 mm 0.00 in0.0 mm
03:17 AM 36.7°F2.6°C 18.8°F-7.3°C 48% 13.0 mph WSW20.9 kmh WSW 25.0 mph40.2 kmh 28.76 in973.9 mb 0.00 in0.0 mm 0.00 in0.0 mm 0.00 in0.0 mm
03:16 AM 36.7°F2.6°C 18.8°F-7.3°C 48% 15.0 mph WSW24.1 kmh WSW 34.0 mph54.7 kmh 28.76 in973.9 mb 0.00 in0.0 mm 0.00 in0.0 mm 0.00 in0.0 mm
03:15 AM 36.7°F2.6°C 18.8°F-7.3°C 48% 15.0 mph WSW24.1 kmh WSW 34.0 mph54.7 kmh 28.76 in973.9 mb 0.00 in0.0 mm 0.00 in0.0 mm 0.00 in0.0 mm
03:14 AM 36.7°F2.6°C 18.8°F-7.3°C 48% 13.0 mph SW20.9 kmh SW 34.0 mph54.7 kmh 28.76 in973.9 mb 0.00 in0.0 mm 0.00 in0.0 mm 0.00 in0.0 mm
03:13 AM 36.7°F2.6°C 18.8°F-7.3°C 48% 15.0 mph SW24.1 kmh SW 34.0 mph54.7 kmh 28.76 in973.9 mb 0.00 in0.0 mm 0.00 in0.0 mm 0.00 in0.0 mm
03:12 AM 36.7°F2.6°C 18.8°F-7.3°C 48% 16.0 mph SW25.7 kmh SW 34.0 mph54.7 kmh 28.76 in973.9 mb 0.00 in0.0 mm 0.00 in0.0 mm 0.00 in0.0 mm
03:11 AM 36.7°F2.6°C 18.8°F-7.3°C 48% 17.0 mph WSW27.4 kmh WSW 34.0 mph54.7 kmh 28.76 in973.9 mb 0.00 in0.0 mm 0.00 in0.0 mm 0.00 in0.0 mm
03:10 AM 36.7°F2.6°C 18.8°F-7.3°C 48% 17.0 mph WSW27.4 kmh WSW 34.0 mph54.7 kmh 28.76 in973.9 mb 0.00 in0.0 mm 0.00 in0.0 mm 0.00 in0.0 mm
03:09 AM 36.7°F2.6°C 18.8°F-7.3°C 48% 17.0 mph WSW27.4 kmh WSW 34.0 mph54.7 kmh 28.76 in973.9 mb 0.00 in0.0 mm 0.00 in0.0 mm 0.00 in0.0 mm
03:08 AM 36.7°F2.6°C 18.8°F-7.3°C 48% 19.0 mph SW30.6 kmh SW 34.0 mph54.7 kmh 28.76 in973.9 mb 0.00 in0.0 mm 0.00 in0.0 mm 0.00 in0.0 mm
03:07 AM 36.7°F2.6°C 18.8°F-7.3°C 48% 18.0 mph SW29.0 kmh SW 34.0 mph54.7 kmh 28.76 in973.9 mb 0.00 in0.0 mm 0.00 in0.0 mm 0.00 in0.0 mm
03:06 AM 36.7°F2.6°C 18.8°F-7.3°C 48% 16.0 mph SW25.7 kmh SW 28.0 mph45.1 kmh 28.76 in973.9 mb 0.00 in0.0 mm 0.00 in0.0 mm 0.00 in0.0 mm
03:05 AM 36.7°F2.6°C 18.8°F-7.3°C 48% 15.0 mph SW24.1 kmh SW 28.0 mph45.1 kmh 28.76 in973.9 mb 0.00 in0.0 mm 0.00 in0.0 mm 0.00 in0.0 mm
03:04 AM 36.7°F2.6°C 18.8°F-7.3°C 48% 15.0 mph SW24.1 kmh SW 28.0 mph45.1 kmh 28.76 in973.9 mb 0.00 in0.0 mm 0.00 in0.0 mm 0.00 in0.0 mm
03:03 AM 36.7°F2.6°C 18.8°F-7.3°C 48% 15.0 mph SW24.1 kmh SW 28.0 mph45.1 kmh 28.76 in973.9 mb 0.00 in0.0 mm 0.00 in0.0 mm 0.00 in0.0 mm
03:02 AM 36.7°F2.6°C 18.8°F-7.3°C 48% 15.0 mph WSW24.1 kmh WSW 28.0 mph45.1 kmh 28.76 in973.9 mb 0.00 in0.0 mm 0.00 in0.0 mm 0.00 in0.0 mm
03:01 AM 36.7°F2.6°C 18.8°F-7.3°C 48% 15.0 mph WSW24.1 kmh WSW 27.0 mph43.5 kmh 28.76 in973.9 mb 0.00 in0.0 mm 0.00 in0.0 mm 0.00 in0.0 mm
03:00 AM 36.7°F2.6°C 18.8°F-7.3°C 48% 16.0 mph WSW25.7 kmh WSW 27.0 mph43.5 kmh 28.76 in973.9 mb 0.00 in0.0 mm 0.00 in0.0 mm 0.00 in0.0 mm
02:59 AM 36.7°F2.6°C 18.8°F-7.3°C 48% 17.0 mph WSW27.4 kmh WSW 34.0 mph54.7 kmh 28.76 in973.9 mb 0.00 in0.0 mm 0.00 in0.0 mm 0.00 in0.0 mm
02:58 AM 36.7°F2.6°C 18.8°F-7.3°C 48% 18.0 mph SW29.0 kmh SW 34.0 mph54.7 kmh 28.76 in973.9 mb 0.00 in0.0 mm 0.00 in0.0 mm 0.00 in0.0 mm
02:57 AM 36.7°F2.6°C 18.8°F-7.3°C 48% 19.0 mph SW30.6 kmh SW 34.0 mph54.7 kmh 28.76 in973.9 mb 0.00 in0.0 mm 0.00 in0.0 mm 0.00 in0.0 mm
02:56 AM 36.7°F2.6°C 18.8°F-7.3°C 48% 16.0 mph SW25.7 kmh SW 34.0 mph54.7 kmh 28.76 in973.9 mb 0.00 in0.0 mm 0.00 in0.0 mm 0.00 in0.0 mm
02:55 AM 36.7°F2.6°C 18.8°F-7.3°C 48% 15.0 mph WSW24.1 kmh WSW 34.0 mph54.7 kmh 28.76 in973.9 mb 0.00 in0.0 mm 0.00 in0.0 mm 0.00 in0.0 mm
02:54 AM 36.7°F2.6°C 18.8°F-7.3°C 48% 15.0 mph WSW24.1 kmh WSW 34.0 mph54.7 kmh 28.76 in973.9 mb 0.00 in0.0 mm 0.00 in0.0 mm 0.00 in0.0 mm
02:53 AM 36.7°F2.6°C 18.8°F-7.3°C 48% 15.0 mph WSW24.1 kmh WSW 34.0 mph54.7 kmh 28.76 in973.9 mb 0.00 in0.0 mm 0.00 in0.0 mm 0.00 in0.0 mm
02:52 AM 36.7°F2.6°C 18.8°F-7.3°C 48% 17.0 mph WSW27.4 kmh WSW 34.0 mph54.7 kmh 28.76 in973.9 mb 0.00 in0.0 mm 0.00 in0.0 mm 0.00 in0.0 mm
02:51 AM 36.7°F2.6°C 18.8°F-7.3°C 48% 18.0 mph WSW29.0 kmh WSW 34.0 mph54.7 kmh 28.76 in973.9 mb 0.00 in0.0 mm 0.00 in0.0 mm 0.00 in0.0 mm
02:50 AM 36.7°F2.6°C 18.3°F-7.6°C 47% 15.0 mph WSW24.1 kmh WSW 34.0 mph54.7 kmh 28.76 in973.9 mb 0.00 in0.0 mm 0.00 in0.0 mm 0.00 in0.0 mm
02:49 AM 36.7°F2.6°C 18.3°F-7.6°C 47% 13.0 mph WSW20.9 kmh WSW 29.0 mph46.7 kmh 28.76 in973.9 mb 0.00 in0.0 mm 0.00 in0.0 mm 0.00 in0.0 mm
02:48 AM 36.7°F2.6°C 18.3°F-7.6°C 47% 13.0 mph WSW20.9 kmh WSW 29.0 mph46.7 kmh 28.76 in973.9 mb 0.00 in0.0 mm 0.00 in0.0 mm 0.00 in0.0 mm
02:47 AM 36.7°F2.6°C 18.3°F-7.6°C 47% 13.0 mph SW20.9 kmh SW 33.0 mph53.1 kmh 28.76 in973.9 mb 0.00 in0.0 mm 0.00 in0.0 mm 0.00 in0.0 mm
02:46 AM 36.7°F2.6°C 18.3°F-7.6°C 47% 14.0 mph SW22.5 kmh SW 33.0 mph53.1 kmh 28.76 in973.9 mb 0.00 in0.0 mm 0.00 in0.0 mm 0.00 in0.0 mm
02:45 AM 36.7°F2.6°C 18.3°F-7.6°C 47% 14.0 mph SW22.5 kmh SW 33.0 mph53.1 kmh 28.76 in973.9 mb 0.00 in0.0 mm 0.00 in0.0 mm 0.00 in0.0 mm
02:44 AM 36.9°F2.7°C 18.4°F-7.6°C 47% 15.0 mph SW24.1 kmh SW 33.0 mph53.1 kmh 28.76 in973.9 mb 0.00 in0.0 mm 0.00 in0.0 mm 0.00 in0.0 mm
02:43 AM 36.9°F2.7°C 18.4°F-7.6°C 47% 16.0 mph SW25.7 kmh SW 33.0 mph53.1 kmh 28.76 in973.9 mb 0.00 in0.0 mm 0.00 in0.0 mm 0.00 in0.0 mm
02:42 AM 36.7°F2.6°C 18.3°F-7.6°C 47% 15.0 mph WSW24.1 kmh WSW 33.0 mph53.1 kmh 28.76 in973.9 mb 0.00 in0.0 mm 0.00 in0.0 mm 0.00 in0.0 mm
02:41 AM 36.7°F2.6°C 18.3°F-7.6°C 47% 14.0 mph WSW22.5 kmh WSW 33.0 mph53.1 kmh 28.76 in973.9 mb 0.00 in0.0 mm 0.00 in0.0 mm 0.00 in0.0 mm
02:40 AM 36.9°F2.7°C 18.4°F-7.6°C 47% 14.0 mph SW22.5 kmh SW 33.0 mph53.1 kmh 28.76 in973.9 mb 0.00 in0.0 mm 0.00 in0.0 mm 0.00 in0.0 mm
02:39 AM 36.9°F2.7°C 18.4°F-7.6°C 47% 18.0 mph SW29.0 kmh SW 33.0 mph53.1 kmh 28.76 in973.9 mb 0.00 in0.0 mm 0.00 in0.0 mm 0.00 in0.0 mm
02:38 AM 36.9°F2.7°C 18.4°F-7.6°C 47% 20.0 mph WSW32.2 kmh WSW 35.0 mph56.3 kmh 28.76 in973.9 mb 0.00 in0.0 mm 0.00 in0.0 mm 0.00 in0.0 mm
02:37 AM 36.7°F2.6°C 18.3°F-7.6°C 47% 16.0 mph WSW25.7 kmh WSW 35.0 mph56.3 kmh 28.76 in973.9 mb 0.00 in0.0 mm 0.00 in0.0 mm 0.00 in0.0 mm
02:36 AM 36.7°F2.6°C 18.3°F-7.6°C 47% 14.0 mph WSW22.5 kmh WSW 35.0 mph56.3 kmh 28.76 in973.9 mb 0.00 in0.0 mm 0.00 in0.0 mm 0.00 in0.0 mm
02:35 AM 36.7°F2.6°C 18.3°F-7.6°C 47% 16.0 mph WSW25.7 kmh WSW 35.0 mph56.3 kmh 28.76 in973.9 mb 0.00 in0.0 mm 0.00 in0.0 mm 0.00 in0.0 mm
02:34 AM 36.7°F2.6°C 18.3°F-7.6°C 47% 17.0 mph SW27.4 kmh SW 35.0 mph56.3 kmh 28.76 in973.9 mb 0.00 in0.0 mm 0.00 in0.0 mm 0.00 in0.0 mm
02:33 AM 36.7°F2.6°C 18.3°F-7.6°C 47% 17.0 mph SW27.4 kmh SW 35.0 mph56.3 kmh 28.76 in973.9 mb 0.00 in0.0 mm 0.00 in0.0 mm 0.00 in0.0 mm
02:32 AM 36.7°F2.6°C 18.3°F-7.6°C 47% 15.0 mph WSW24.1 kmh WSW 35.0 mph56.3 kmh 28.76 in973.9 mb 0.00 in0.0 mm 0.00 in0.0 mm 0.00 in0.0 mm
02:31 AM 36.9°F2.7°C 18.4°F-7.6°C 47% 16.0 mph SW25.7 kmh SW 35.0 mph56.3 kmh 28.76 in973.9 mb 0.00 in0.0 mm 0.00 in0.0 mm 0.00 in0.0 mm
02:30 AM 36.9°F2.7°C 18.4°F-7.6°C 47% 18.0 mph WSW29.0 kmh WSW 38.0 mph61.2 kmh 28.76 in973.9 mb 0.00 in0.0 mm 0.00 in0.0 mm 0.00 in0.0 mm
02:29 AM 36.9°F2.7°C 18.4°F-7.6°C 47% 18.0 mph WSW29.0 kmh WSW 38.0 mph61.2 kmh 28.76 in973.9 mb 0.00 in0.0 mm 0.00 in0.0 mm 0.00 in0.0 mm
02:28 AM 36.9°F2.7°C 18.4°F-7.6°C 47% 17.0 mph WSW27.4 kmh WSW 38.0 mph61.2 kmh 28.73 in972.9 mb 0.00 in0.0 mm 0.00 in0.0 mm 0.00 in0.0 mm
02:27 AM 36.9°F2.7°C 18.4°F-7.6°C 47% 17.0 mph WSW27.4 kmh WSW 38.0 mph61.2 kmh 28.73 in972.9 mb 0.00 in0.0 mm 0.00 in0.0 mm 0.00 in0.0 mm
02:26 AM 36.9°F2.7°C 18.4°F-7.6°C 47% 17.0 mph WSW27.4 kmh WSW 38.0 mph61.2 kmh 28.73 in972.9 mb 0.00 in0.0 mm 0.00 in0.0 mm 0.00 in0.0 mm
02:25 AM 36.9°F2.7°C 18.4°F-7.6°C 47% 16.0 mph WSW25.7 kmh WSW 38.0 mph61.2 kmh 28.73 in972.9 mb 0.00 in0.0 mm 0.00 in0.0 mm 0.00 in0.0 mm
02:24 AM 36.9°F2.7°C 18.4°F-7.6°C 47% 15.0 mph WSW24.1 kmh WSW 38.0 mph61.2 kmh 28.73 in972.9 mb 0.00 in0.0 mm 0.00 in0.0 mm 0.00 in0.0 mm
02:23 AM 36.9°F2.7°C 18.4°F-7.6°C 47% 20.0 mph SW32.2 kmh SW 38.0 mph61.2 kmh 28.73 in972.9 mb 0.00 in0.0 mm 0.00 in0.0 mm 0.00 in0.0 mm
02:22 AM 36.9°F2.7°C 18.4°F-7.6°C 47% 20.0 mph SW32.2 kmh SW 38.0 mph61.2 kmh 28.73 in972.9 mb 0.00 in0.0 mm 0.00 in0.0 mm 0.00 in0.0 mm
02:21 AM 36.9°F2.7°C 18.4°F-7.6°C 47% 18.0 mph WSW29.0 kmh WSW 38.0 mph61.2 kmh 28.73 in972.9 mb 0.00 in0.0 mm 0.00 in0.0 mm 0.00 in0.0 mm
02:20 AM 37.0°F2.8°C 18.5°F-7.5°C 47% 16.0 mph SW25.7 kmh SW 33.0 mph53.1 kmh 28.73 in972.9 mb 0.00 in0.0 mm 0.00 in0.0 mm 0.00 in0.0 mm
02:19 AM 37.0°F2.8°C 18.5°F-7.5°C 47% 15.0 mph WSW24.1 kmh WSW 31.0 mph49.9 kmh 28.73 in972.9 mb 0.00 in0.0 mm 0.00 in0.0 mm 0.00 in0.0 mm
02:18 AM 37.0°F2.8°C 18.5°F-7.5°C 47% 16.0 mph WSW25.7 kmh WSW 35.0 mph56.3 kmh 28.73 in972.9 mb 0.00 in0.0 mm 0.00 in0.0 mm 0.00 in0.0 mm
02:17 AM 37.0°F2.8°C 18.5°F-7.5°C 47% 18.0 mph WSW29.0 kmh WSW 35.0 mph56.3 kmh 28.73 in972.9 mb 0.00 in0.0 mm 0.00 in0.0 mm 0.00 in0.0 mm
02:16 AM 37.0°F2.8°C 18.5°F-7.5°C 47% 17.0 mph SW27.4 kmh SW 35.0 mph56.3 kmh 28.73 in972.9 mb 0.00 in0.0 mm 0.00 in0.0 mm 0.00 in0.0 mm
02:15 AM 37.0°F2.8°C 18.5°F-7.5°C 47% 16.0 mph WSW25.7 kmh WSW 35.0 mph56.3 kmh 28.73 in972.9 mb 0.00 in0.0 mm 0.00 in0.0 mm 0.00 in0.0 mm
02:14 AM 37.0°F2.8°C 18.5°F-7.5°C 47% 16.0 mph SW25.7 kmh SW 35.0 mph56.3 kmh 28.73 in972.9 mb 0.00 in0.0 mm 0.00 in0.0 mm 0.00 in0.0 mm
02:13 AM 37.0°F2.8°C 18.5°F-7.5°C 47% 19.0 mph SW30.6 kmh SW 35.0 mph56.3 kmh 28.73 in972.9 mb 0.00 in0.0 mm 0.00 in0.0 mm 0.00 in0.0 mm
02:12 AM 37.0°F2.8°C 18.5°F-7.5°C 47% 21.0 mph SW33.8 kmh SW 35.0 mph56.3 kmh 28.73 in972.9 mb 0.00 in0.0 mm 0.00 in0.0 mm 0.00 in0.0 mm
02:11 AM 37.0°F2.8°C 18.5°F-7.5°C 47% 20.0 mph SW32.2 kmh SW 35.0 mph56.3 kmh 28.73 in972.9 mb 0.00 in0.0 mm 0.00 in0.0 mm 0.00 in0.0 mm
02:10 AM 37.0°F2.8°C 18.5°F-7.5°C 47% 17.0 mph WSW27.4 kmh WSW 35.0 mph56.3 kmh 28.73 in972.9 mb 0.00 in0.0 mm 0.00 in0.0 mm 0.00 in0.0 mm
02:09 AM 37.0°F2.8°C 18.5°F-7.5°C 47% 15.0 mph WSW24.1 kmh WSW 35.0 mph56.3 kmh 28.73 in972.9 mb 0.00 in0.0 mm 0.00 in0.0 mm 0.00 in0.0 mm
02:08 AM 37.0°F2.8°C 18.5°F-7.5°C 47% 15.0 mph SW24.1 kmh SW 28.0 mph45.1 kmh 28.73 in972.9 mb 0.00 in0.0 mm 0.00 in0.0 mm 0.00 in0.0 mm
02:07 AM 37.0°F2.8°C 18.5°F-7.5°C 47% 16.0 mph SW25.7 kmh SW 30.0 mph48.3 kmh 28.73 in972.9 mb 0.00 in0.0 mm 0.00 in0.0 mm 0.00 in0.0 mm
02:06 AM 37.0°F2.8°C 18.5°F-7.5°C 47% 18.0 mph SW29.0 kmh SW 30.0 mph48.3 kmh 28.73 in972.9 mb 0.00 in0.0 mm 0.00 in0.0 mm 0.00 in0.0 mm
02:05 AM 37.0°F2.8°C 18.5°F-7.5°C 47% 19.0 mph WSW30.6 kmh WSW 30.0 mph48.3 kmh 28.73 in972.9 mb 0.00 in0.0 mm 0.00 in0.0 mm 0.00 in0.0 mm
02:04 AM 37.0°F2.8°C 18.5°F-7.5°C 47% 18.0 mph WSW29.0 kmh WSW 30.0 mph48.3 kmh 28.73 in972.9 mb 0.00 in0.0 mm 0.00 in0.0 mm 0.00 in0.0 mm
02:03 AM 37.0°F2.8°C 18.5°F-7.5°C 47% 15.0 mph SW24.1 kmh SW 30.0 mph48.3 kmh 28.73 in972.9 mb 0.00 in0.0 mm 0.00 in0.0 mm 0.00 in0.0 mm
02:02 AM 37.0°F2.8°C 18.5°F-7.5°C 47% 14.0 mph SW22.5 kmh SW 31.0 mph49.9 kmh 28.73 in972.9 mb 0.00 in0.0 mm 0.00 in0.0 mm 0.00 in0.0 mm
02:01 AM 37.0°F2.8°C 18.5°F-7.5°C 47% 14.0 mph SW22.5 kmh SW 31.0 mph49.9 kmh 28.73 in972.9 mb 0.00 in0.0 mm 0.00 in0.0 mm 0.00 in0.0 mm
02:00 AM 37.2°F2.9°C 18.7°F-7.4°C 47% 16.0 mph SW25.7 kmh SW 31.0 mph49.9 kmh 28.73 in972.9 mb 0.00 in0.0 mm 0.00 in0.0 mm 0.00 in0.0 mm
01:59 AM 37.2°F2.9°C 18.7°F-7.4°C 47% 16.0 mph SW25.7 kmh SW 34.0 mph54.7 kmh 28.73 in972.9 mb 0.00 in0.0 mm 0.00 in0.0 mm 0.00 in0.0 mm
01:58 AM 37.4°F3.0°C 18.9°F-7.3°C 47% 15.0 mph SW24.1 kmh SW 34.0 mph54.7 kmh 28.73 in972.9 mb 0.00 in0.0 mm 0.00 in0.0 mm 0.00 in0.0 mm
01:57 AM 37.4°F3.0°C 18.9°F-7.3°C 47% 16.0 mph SW25.7 kmh SW 34.0 mph54.7 kmh 28.73 in972.9 mb 0.00 in0.0 mm 0.00 in0.0 mm 0.00 in0.0 mm
01:56 AM 37.4°F3.0°C 18.9°F-7.3°C 47% 17.0 mph WSW27.4 kmh WSW 34.0 mph54.7 kmh 28.73 in972.9 mb 0.00 in0.0 mm 0.00 in0.0 mm 0.00 in0.0 mm
01:55 AM 37.4°F3.0°C 18.9°F-7.3°C 47% 19.0 mph SW30.6 kmh SW 34.0 mph54.7 kmh 28.73 in972.9 mb 0.00 in0.0 mm 0.00 in0.0 mm 0.00 in0.0 mm
01:54 AM 37.4°F3.0°C 18.9°F-7.3°C 47% 21.0 mph SW33.8 kmh SW 34.0 mph54.7 kmh 28.73 in972.9 mb 0.00 in0.0 mm 0.00 in0.0 mm 0.00 in0.0 mm
01:53 AM 37.4°F3.0°C 18.9°F-7.3°C 47% 21.0 mph SW33.8 kmh SW 34.0 mph54.7 kmh 28.73 in972.9 mb 0.00 in0.0 mm 0.00 in0.0 mm 0.00 in0.0 mm
01:52 AM 37.4°F3.0°C 18.9°F-7.3°C 47% 21.0 mph WSW33.8 kmh WSW 34.0 mph54.7 kmh 28.73 in972.9 mb 0.00 in0.0 mm 0.00 in0.0 mm 0.00 in0.0 mm
01:51 AM 37.4°F3.0°C 18.9°F-7.3°C 47% 22.0 mph SW35.4 kmh SW 34.0 mph54.7 kmh 28.73 in972.9 mb 0.00 in0.0 mm 0.00 in0.0 mm 0.00 in0.0 mm
01:50 AM 37.4°F3.0°C 18.9°F-7.3°C 47% 22.0 mph SW35.4 kmh SW 34.0 mph54.7 kmh 28.73 in972.9 mb 0.00 in0.0 mm 0.00 in0.0 mm 0.00 in0.0 mm
01:49 AM 37.4°F3.0°C 18.9°F-7.3°C 47% 20.0 mph SW32.2 kmh SW 33.0 mph53.1 kmh 28.73 in972.9 mb 0.00 in0.0 mm 0.00 in0.0 mm 0.00 in0.0 mm
01:48 AM 37.4°F3.0°C 18.9°F-7.3°C 47% 18.0 mph WSW29.0 kmh WSW 33.0 mph53.1 kmh 28.73 in972.9 mb 0.00 in0.0 mm 0.00 in0.0 mm 0.00 in0.0 mm
01:47 AM 37.4°F3.0°C 18.9°F-7.3°C 47% 16.0 mph WSW25.7 kmh WSW 33.0 mph53.1 kmh 28.73 in972.9 mb 0.00 in0.0 mm 0.00 in0.0 mm 0.00 in0.0 mm
01:46 AM 37.4°F3.0°C 18.9°F-7.3°C 47% 15.0 mph SW24.1 kmh SW 33.0 mph53.1 kmh 28.73 in972.9 mb 0.00 in0.0 mm 0.00 in0.0 mm 0.00 in0.0 mm
01:45 AM 37.4°F3.0°C 18.9°F-7.3°C 47% 16.0 mph SW25.7 kmh SW 33.0 mph53.1 kmh 28.73 in972.9 mb 0.00 in0.0 mm 0.00 in0.0 mm 0.00 in0.0 mm
01:44 AM 37.4°F3.0°C 18.9°F-7.3°C 47% 17.0 mph WSW27.4 kmh WSW 33.0 mph53.1 kmh 28.73 in972.9 mb 0.00 in0.0 mm 0.00 in0.0 mm 0.00 in0.0 mm
01:43 AM 37.4°F3.0°C 18.9°F-7.3°C 47% 18.0 mph WSW29.0 kmh WSW 33.0 mph53.1 kmh 28.73 in972.9 mb 0.00 in0.0 mm 0.00 in0.0 mm 0.00 in0.0 mm
01:42 AM 37.4°F3.0°C 18.9°F-7.3°C 47% 20.0 mph SW32.2 kmh SW 33.0 mph53.1 kmh 28.73 in972.9 mb 0.00 in0.0 mm 0.00 in0.0 mm 0.00 in0.0 mm
01:41 AM 37.4°F3.0°C 18.9°F-7.3°C 47% 20.0 mph SW32.2 kmh SW 33.0 mph53.1 kmh 28.73 in972.9 mb 0.00 in0.0 mm 0.00 in0.0 mm 0.00 in0.0 mm
01:40 AM 37.4°F3.0°C 18.9°F-7.3°C 47% 19.0 mph WSW30.6 kmh WSW 33.0 mph53.1 kmh 28.73 in972.9 mb 0.00 in0.0 mm 0.00 in0.0 mm 0.00 in0.0 mm
01:39 AM 37.6°F3.1°C 19.1°F-7.2°C 47% 18.0 mph SW29.0 kmh SW 32.0 mph51.5 kmh 28.73 in972.9 mb 0.00 in0.0 mm 0.00 in0.0 mm 0.00 in0.0 mm
01:38 AM 37.6°F3.1°C 19.1°F-7.2°C 47% 17.0 mph SW27.4 kmh SW 32.0 mph51.5 kmh 28.73 in972.9 mb 0.00 in0.0 mm 0.00 in0.0 mm 0.00 in0.0 mm
01:37 AM 37.6°F3.1°C 19.1°F-7.2°C 47% 18.0 mph SW29.0 kmh SW 32.0 mph51.5 kmh 28.73 in972.9 mb 0.00 in0.0 mm 0.00 in0.0 mm 0.00 in0.0 mm
01:36 AM 37.6°F3.1°C 19.1°F-7.2°C 47% 20.0 mph SW32.2 kmh SW 32.0 mph51.5 kmh 28.73 in972.9 mb 0.00 in0.0 mm 0.00 in0.0 mm 0.00 in0.0 mm
01:35 AM 37.6°F3.1°C 19.1°F-7.2°C 47% 20.0 mph SW32.2 kmh SW 31.0 mph49.9 kmh 28.73 in972.9 mb 0.00 in0.0 mm 0.00 in0.0 mm 0.00 in0.0 mm
01:34 AM 37.4°F3.0°C 18.9°F-7.3°C 47% 22.0 mph SW35.4 kmh SW 31.0 mph49.9 kmh 28.73 in972.9 mb 0.00 in0.0 mm 0.00 in0.0 mm 0.00 in0.0 mm
01:33 AM 37.4°F3.0°C 18.9°F-7.3°C 47% 21.0 mph SW33.8 kmh SW 31.0 mph49.9 kmh 28.73 in972.9 mb 0.00 in0.0 mm 0.00 in0.0 mm 0.00 in0.0 mm
01:32 AM 37.4°F3.0°C 18.9°F-7.3°C 47% 19.0 mph WSW30.6 kmh WSW 31.0 mph49.9 kmh 28.73 in972.9 mb 0.00 in0.0 mm 0.00 in0.0 mm 0.00 in0.0 mm
01:31 AM 37.4°F3.0°C 18.9°F-7.3°C 47% 20.0 mph SW32.2 kmh SW 29.0 mph46.7 kmh 28.73 in972.9 mb 0.00 in0.0 mm 0.00 in0.0 mm 0.00 in0.0 mm
01:30 AM 37.4°F3.0°C 18.9°F-7.3°C 47% 19.0 mph WSW30.6 kmh WSW 27.0 mph43.5 kmh 28.73 in972.9 mb 0.00 in0.0 mm 0.00 in0.0 mm 0.00 in0.0 mm
01:29 AM 37.4°F3.0°C 18.9°F-7.3°C 47% 18.0 mph WSW29.0 kmh WSW 27.0 mph43.5 kmh 28.73 in972.9 mb 0.00 in0.0 mm 0.00 in0.0 mm 0.00 in0.0 mm
01:28 AM 37.4°F3.0°C 18.9°F-7.3°C 47% 16.0 mph WSW25.7 kmh WSW 34.0 mph54.7 kmh 28.73 in972.9 mb 0.00 in0.0 mm 0.00 in0.0 mm 0.00 in0.0 mm
01:27 AM 37.4°F3.0°C 18.3°F-7.6°C 46% 15.0 mph WSW24.1 kmh WSW 34.0 mph54.7 kmh 28.73 in972.9 mb 0.00 in0.0 mm 0.00 in0.0 mm 0.00 in0.0 mm
01:26 AM 37.4°F3.0°C 18.3°F-7.6°C 46% 16.0 mph WSW25.7 kmh WSW 34.0 mph54.7 kmh 28.73 in972.9 mb 0.00 in0.0 mm 0.00 in0.0 mm 0.00 in0.0 mm
01:25 AM 37.4°F3.0°C 18.3°F-7.6°C 46% 16.0 mph SW25.7 kmh SW 34.0 mph54.7 kmh 28.73 in972.9 mb 0.00 in0.0 mm 0.00 in0.0 mm 0.00 in0.0 mm
01:24 AM 37.6°F3.1°C 18.5°F-7.5°C 46% 17.0 mph SW27.4 kmh SW 34.0 mph54.7 kmh 28.73 in972.9 mb 0.00 in0.0 mm 0.00 in0.0 mm 0.00 in0.0 mm
01:23 AM 37.6°F3.1°C 18.5°F-7.5°C 46% 18.0 mph SW29.0 kmh SW 34.0 mph54.7 kmh 28.73 in972.9 mb 0.00 in0.0 mm 0.00 in0.0 mm 0.00 in0.0 mm
01:22 AM 37.6°F3.1°C 18.5°F-7.5°C 46% 16.0 mph SW25.7 kmh SW 34.0 mph54.7 kmh 28.73 in972.9 mb 0.00 in0.0 mm 0.00 in0.0 mm 0.00 in0.0 mm
01:21 AM 37.6°F3.1°C 19.1°F-7.2°C 47% 17.0 mph WSW27.4 kmh WSW 34.0 mph54.7 kmh 28.73 in972.9 mb 0.00 in0.0 mm 0.00 in0.0 mm 0.00 in0.0 mm
01:20 AM 37.8°F3.2°C 19.3°F-7.1°C 47% 19.0 mph SW30.6 kmh SW 34.0 mph54.7 kmh 28.73 in972.9 mb 0.00 in0.0 mm 0.00 in0.0 mm 0.00 in0.0 mm
01:18 AM 37.6°F3.1°C 18.5°F-7.5°C 46% 19.0 mph SW30.6 kmh SW 34.0 mph54.7 kmh 28.73 in972.9 mb 0.00 in0.0 mm 0.00 in0.0 mm 0.00 in0.0 mm
01:17 AM 37.6°F3.1°C 18.5°F-7.5°C 46% 16.0 mph SW25.7 kmh SW 28.0 mph45.1 kmh 28.73 in972.9 mb 0.00 in0.0 mm 0.00 in0.0 mm 0.00 in0.0 mm
01:16 AM 37.8°F3.2°C 18.7°F-7.4°C 46% 15.0 mph WSW24.1 kmh WSW 28.0 mph45.1 kmh 28.73 in972.9 mb 0.00 in0.0 mm 0.00 in0.0 mm 0.00 in0.0 mm
01:15 AM 37.8°F3.2°C 18.7°F-7.4°C 46% 17.0 mph SW27.4 kmh SW 28.0 mph45.1 kmh 28.73 in972.9 mb 0.00 in0.0 mm 0.00 in0.0 mm 0.00 in0.0 mm
01:14 AM 37.8°F3.2°C 19.3°F-7.1°C 47% 17.0 mph SW27.4 kmh SW 34.0 mph54.7 kmh 28.73 in972.9 mb 0.00 in0.0 mm 0.00 in0.0 mm 0.00 in0.0 mm
01:13 AM 37.8°F3.2°C 18.7°F-7.4°C 46% 14.0 mph WSW22.5 kmh WSW 34.0 mph54.7 kmh 28.73 in972.9 mb 0.00 in0.0 mm 0.00 in0.0 mm 0.00 in0.0 mm
01:12 AM 37.8°F3.2°C 19.3°F-7.1°C 47% 17.0 mph WSW27.4 kmh WSW 34.0 mph54.7 kmh 28.73 in972.9 mb 0.00 in0.0 mm 0.00 in0.0 mm 0.00 in0.0 mm
01:11 AM 37.8°F3.2°C 19.3°F-7.1°C 47% 20.0 mph WSW32.2 kmh WSW 34.0 mph54.7 kmh 28.73 in972.9 mb 0.00 in0.0 mm 0.00 in0.0 mm 0.00 in0.0 mm
01:10 AM 37.8°F3.2°C 19.3°F-7.1°C 47% 20.0 mph WSW32.2 kmh WSW 34.0 mph54.7 kmh 28.73 in972.9 mb 0.00 in0.0 mm 0.00 in0.0 mm 0.00 in0.0 mm
01:09 AM 37.8°F3.2°C 19.3°F-7.1°C 47% 19.0 mph WSW30.6 kmh WSW 34.0 mph54.7 kmh 28.73 in972.9 mb 0.00 in0.0 mm 0.00 in0.0 mm 0.00 in0.0 mm
01:08 AM 37.8°F3.2°C 19.3°F-7.1°C 47% 18.0 mph WSW29.0 kmh WSW 34.0 mph54.7 kmh 28.73 in972.9 mb 0.00 in0.0 mm 0.00 in0.0 mm 0.00 in0.0 mm
01:07 AM 37.8°F3.2°C 19.3°F-7.1°C 47% 18.0 mph SW29.0 kmh SW 34.0 mph54.7 kmh 28.73 in972.9 mb 0.00 in0.0 mm 0.00 in0.0 mm 0.00 in0.0 mm
01:06 AM 37.8°F3.2°C 19.3°F-7.1°C 47% 19.0 mph SW30.6 kmh SW 34.0 mph54.7 kmh 28.73 in972.9 mb 0.00 in0.0 mm 0.00 in0.0 mm 0.00 in0.0 mm
01:05 AM 37.8°F3.2°C 19.3°F-7.1°C 47% 18.0 mph SW29.0 kmh SW 34.0 mph54.7 kmh 28.73 in972.9 mb 0.00 in0.0 mm 0.00 in0.0 mm 0.00 in0.0 mm
01:04 AM 37.8°F3.2°C 19.3°F-7.1°C 47% 15.0 mph SW24.1 kmh SW 31.0 mph49.9 kmh 28.73 in972.9 mb 0.00 in0.0 mm 0.00 in0.0 mm 0.00 in0.0 mm
01:03 AM 37.8°F3.2°C 19.3°F-7.1°C 47% 15.0 mph WSW24.1 kmh WSW 31.0 mph49.9 kmh 28.73 in972.9 mb 0.00 in0.0 mm 0.00 in0.0 mm 0.00 in0.0 mm
01:02 AM 37.8°F3.2°C 19.3°F-7.1°C 47% 17.0 mph WSW27.4 kmh WSW 31.0 mph49.9 kmh 28.73 in972.9 mb 0.00 in0.0 mm 0.00 in0.0 mm 0.00 in0.0 mm
01:01 AM 37.8°F3.2°C 19.3°F-7.1°C 47% 19.0 mph SW30.6 kmh SW 31.0 mph49.9 kmh 28.73 in972.9 mb 0.00 in0.0 mm 0.00 in0.0 mm 0.00 in0.0 mm
01:00 AM 37.6°F3.1°C 19.1°F-7.2°C 47% 17.0 mph WSW27.4 kmh WSW 31.0 mph49.9 kmh 28.73 in972.9 mb 0.00 in0.0 mm 0.00 in0.0 mm 0.00 in0.0 mm
12:59 AM 37.6°F3.1°C 19.1°F-7.2°C 47% 16.0 mph SW25.7 kmh SW 31.0 mph49.9 kmh 28.73 in972.9 mb 0.00 in0.0 mm 0.00 in0.0 mm 0.00 in0.0 mm
12:58 AM 37.6°F3.1°C 19.1°F-7.2°C 47% 17.0 mph WSW27.4 kmh WSW 31.0 mph49.9 kmh 28.73 in972.9 mb 0.00 in0.0 mm 0.00 in0.0 mm 0.00 in0.0 mm
12:57 AM 37.6°F3.1°C 19.1°F-7.2°C 47% 20.0 mph WSW32.2 kmh WSW 31.0 mph49.9 kmh 28.73 in972.9 mb 0.00 in0.0 mm 0.00 in0.0 mm 0.00 in0.0 mm
12:56 AM 37.6°F3.1°C 18.5°F-7.5°C 46% 20.0 mph SW32.2 kmh SW 31.0 mph49.9 kmh 28.73 in972.9 mb 0.00 in0.0 mm 0.00 in0.0 mm 0.00 in0.0 mm
12:55 AM 37.6°F3.1°C 18.5°F-7.5°C 46% 17.0 mph SW27.4 kmh SW 31.0 mph49.9 kmh 28.73 in972.9 mb 0.00 in0.0 mm 0.00 in0.0 mm 0.00 in0.0 mm
12:54 AM 37.6°F3.1°C 18.5°F-7.5°C 46% 14.0 mph SW22.5 kmh SW 27.0 mph43.5 kmh 28.73 in972.9 mb 0.00 in0.0 mm 0.00 in0.0 mm 0.00 in0.0 mm
12:53 AM 37.6°F3.1°C 18.5°F-7.5°C 46% 13.0 mph WSW20.9 kmh WSW 25.0 mph40.2 kmh 28.73 in972.9 mb 0.00 in0.0 mm 0.00 in0.0 mm 0.00 in0.0 mm
12:52 AM 37.6°F3.1°C 18.5°F-7.5°C 46% 14.0 mph SW22.5 kmh SW 25.0 mph40.2 kmh 28.73 in972.9 mb 0.00 in0.0 mm 0.00 in0.0 mm 0.00 in0.0 mm
12:50 AM 37.8°F3.2°C 19.3°F-7.1°C 47% 16.0 mph SW25.7 kmh SW 25.0 mph40.2 kmh 28.73 in972.9 mb 0.00 in0.0 mm 0.00 in0.0 mm 0.00 in0.0 mm
12:49 AM 37.8°F3.2°C 19.3°F-7.1°C 47% 16.0 mph SW25.7 kmh SW 29.0 mph46.7 kmh 28.73 in972.9 mb 0.00 in0.0 mm 0.00 in0.0 mm 0.00 in0.0 mm
12:48 AM 37.8°F3.2°C 19.3°F-7.1°C 47% 17.0 mph SW27.4 kmh SW 29.0 mph46.7 kmh 28.73 in972.9 mb 0.00 in0.0 mm 0.00 in0.0 mm 0.00 in0.0 mm
12:47 AM 37.6°F3.1°C 19.1°F-7.2°C 47% 18.0 mph SW29.0 kmh SW 29.0 mph46.7 kmh 28.73 in972.9 mb 0.00 in0.0 mm 0.00 in0.0 mm 0.00 in0.0 mm
12:46 AM 37.6°F3.1°C 19.1°F-7.2°C 47% 17.0 mph SW27.4 kmh SW 29.0 mph46.7 kmh 28.73 in972.9 mb 0.00 in0.0 mm 0.00 in0.0 mm 0.00 in0.0 mm
12:45 AM 37.6°F3.1°C 19.1°F-7.2°C 47% 15.0 mph SW24.1 kmh SW 29.0 mph46.7 kmh 28.73 in972.9 mb 0.00 in0.0 mm 0.00 in0.0 mm 0.00 in0.0 mm
12:44 AM 37.6°F3.1°C 19.1°F-7.2°C 47% 14.0 mph SW22.5 kmh SW 29.0 mph46.7 kmh 28.73 in972.9 mb 0.00 in0.0 mm 0.00 in0.0 mm 0.00 in0.0 mm
12:43 AM 37.6°F3.1°C 19.1°F-7.2°C 47% 15.0 mph SW24.1 kmh SW 29.0 mph46.7 kmh 28.73 in972.9 mb 0.00 in0.0 mm 0.00 in0.0 mm 0.00 in0.0 mm
12:42 AM 37.6°F3.1°C 19.1°F-7.2°C 47% 15.0 mph SW24.1 kmh SW 29.0 mph46.7 kmh 28.73 in972.9 mb 0.00 in0.0 mm 0.00 in0.0 mm 0.00 in0.0 mm
12:41 AM 37.6°F3.1°C 19.1°F-7.2°C 47% 16.0 mph SW25.7 kmh SW 29.0 mph46.7 kmh 28.73 in972.9 mb 0.00 in0.0 mm 0.00 in0.0 mm 0.00 in0.0 mm
12:40 AM 37.6°F3.1°C 19.1°F-7.2°C 47% 16.0 mph WSW25.7 kmh WSW 29.0 mph46.7 kmh 28.73 in972.9 mb 0.00 in0.0 mm 0.00 in0.0 mm 0.00 in0.0 mm
12:37 AM 37.6°F3.1°C 19.1°F-7.2°C 47% 16.0 mph WSW25.7 kmh WSW 31.0 mph49.9 kmh 28.73 in972.9 mb 0.00 in0.0 mm 0.00 in0.0 mm 0.00 in0.0 mm
12:36 AM 37.4°F3.0°C 18.9°F-7.3°C 47% 15.0 mph WSW24.1 kmh WSW 31.0 mph49.9 kmh 28.73 in972.9 mb 0.00 in0.0 mm 0.00 in0.0 mm 0.00 in0.0 mm
12:35 AM 37.4°F3.0°C 18.9°F-7.3°C 47% 16.0 mph SW25.7 kmh SW 31.0 mph49.9 kmh 28.73 in972.9 mb 0.00 in0.0 mm 0.00 in0.0 mm 0.00 in0.0 mm
12:34 AM 37.4°F3.0°C 18.9°F-7.3°C 47% 16.0 mph SW25.7 kmh SW 31.0 mph49.9 kmh 28.73 in972.9 mb 0.00 in0.0 mm 0.00 in0.0 mm 0.00 in0.0 mm
12:33 AM 37.4°F3.0°C 18.9°F-7.3°C 47% 17.0 mph SW27.4 kmh SW 31.0 mph49.9 kmh 28.73 in972.9 mb 0.00 in0.0 mm 0.00 in0.0 mm 0.00 in0.0 mm
12:32 AM 37.4°F3.0°C 18.9°F-7.3°C 47% 18.0 mph SW29.0 kmh SW 31.0 mph49.9 kmh 28.73 in972.9 mb 0.00 in0.0 mm 0.00 in0.0 mm 0.00 in0.0 mm
12:31 AM 37.4°F3.0°C 18.9°F-7.3°C 47% 19.0 mph SW30.6 kmh SW 31.0 mph49.9 kmh 28.73 in972.9 mb 0.00 in0.0 mm 0.00 in0.0 mm 0.00 in0.0 mm
12:30 AM 37.6°F3.1°C 19.1°F-7.2°C 47% 19.0 mph SW30.6 kmh SW 31.0 mph49.9 kmh 28.73 in972.9 mb 0.00 in0.0 mm 0.00 in0.0 mm 0.00 in0.0 mm
12:29 AM 37.6°F3.1°C 19.1°F-7.2°C 47% 18.0 mph SW29.0 kmh SW 27.0 mph43.5 kmh 28.73 in972.9 mb 0.00 in0.0 mm 0.00 in0.0 mm 0.00 in0.0 mm
12:28 AM 37.4°F3.0°C 18.9°F-7.3°C 47% 16.0 mph SW25.7 kmh SW 27.0 mph43.5 kmh 28.73 in972.9 mb 0.00 in0.0 mm 0.00 in0.0 mm 0.00 in0.0 mm
12:27 AM 37.4°F3.0°C 18.9°F-7.3°C 47% 16.0 mph SW25.7 kmh SW 27.0 mph43.5 kmh 28.73 in972.9 mb 0.00 in0.0 mm 0.00 in0.0 mm 0.00 in0.0 mm
12:26 AM 37.4°F3.0°C 18.9°F-7.3°C 47% 16.0 mph SW25.7 kmh SW 25.0 mph40.2 kmh 28.73 in972.9 mb 0.00 in0.0 mm 0.00 in0.0 mm 0.00 in0.0 mm
12:25 AM 37.4°F3.0°C 18.9°F-7.3°C 47% 16.0 mph SW25.7 kmh SW 25.0 mph40.2 kmh 28.73 in972.9 mb 0.00 in0.0 mm 0.00 in0.0 mm 0.00 in0.0 mm
12:24 AM 37.4°F3.0°C 18.9°F-7.3°C 47% 16.0 mph SW25.7 kmh SW 24.0 mph38.6 kmh 28.73 in972.9 mb 0.00 in0.0 mm 0.00 in0.0 mm 0.00 in0.0 mm
12:23 AM 37.4°F3.0°C 18.9°F-7.3°C 47% 15.0 mph SW24.1 kmh SW 24.0 mph38.6 kmh 28.73 in972.9 mb 0.00 in0.0 mm 0.00 in0.0 mm 0.00 in0.0 mm
12:22 AM 37.4°F3.0°C 18.9°F-7.3°C 47% 14.0 mph SW22.5 kmh SW 24.0 mph38.6 kmh 28.73 in972.9 mb 0.00 in0.0 mm 0.00 in0.0 mm 0.00 in0.0 mm
12:21 AM 37.4°F3.0°C 18.9°F-7.3°C 47% 12.0 mph SW19.3 kmh SW 24.0 mph38.6 kmh 28.73 in972.9 mb 0.00 in0.0 mm 0.00 in0.0 mm 0.00 in0.0 mm
12:20 AM 37.4°F3.0°C 18.9°F-7.3°C 47% 12.0 mph SW19.3 kmh SW 24.0 mph38.6 kmh 28.73 in972.9 mb 0.00 in0.0 mm 0.00 in0.0 mm 0.00 in0.0 mm
12:19 AM 37.4°F3.0°C 18.9°F-7.3°C 47% 15.0 mph SW24.1 kmh SW 24.0 mph38.6 kmh 28.73 in972.9 mb 0.00 in0.0 mm 0.00 in0.0 mm 0.00 in0.0 mm
12:18 AM 37.4°F3.0°C 18.9°F-7.3°C 47% 15.0 mph SW24.1 kmh SW 25.0 mph40.2 kmh 28.73 in972.9 mb 0.00 in0.0 mm 0.00 in0.0 mm 0.00 in0.0 mm
12:17 AM 37.4°F3.0°C 18.9°F-7.3°C 47% 14.0 mph SW22.5 kmh SW 31.0 mph49.9 kmh 28.73 in972.9 mb 0.00 in0.0 mm 0.00 in0.0 mm 0.00 in0.0 mm
12:16 AM 37.4°F3.0°C 18.9°F-7.3°C 47% 14.0 mph SW22.5 kmh SW 31.0 mph49.9 kmh 28.73 in972.9 mb 0.00 in0.0 mm 0.00 in0.0 mm 0.00 in0.0 mm
12:15 AM 37.4°F3.0°C 18.9°F-7.3°C 47% 14.0 mph SW22.5 kmh SW 31.0 mph49.9 kmh 28.73 in972.9 mb 0.00 in0.0 mm 0.00 in0.0 mm 0.00 in0.0 mm
12:14 AM 37.4°F3.0°C 18.9°F-7.3°C 47% 13.0 mph SW20.9 kmh SW 31.0 mph49.9 kmh 28.73 in972.9 mb 0.00 in0.0 mm 0.00 in0.0 mm 0.00 in0.0 mm
12:13 AM 37.4°F3.0°C 18.9°F-7.3°C 47% 13.0 mph SW20.9 kmh SW 31.0 mph49.9 kmh 28.73 in972.9 mb 0.00 in0.0 mm 0.00 in0.0 mm 0.00 in0.0 mm
12:12 AM 37.4°F3.0°C 18.9°F-7.3°C 47% 15.0 mph SW24.1 kmh SW 31.0 mph49.9 kmh 28.73 in972.9 mb 0.00 in0.0 mm 0.00 in0.0 mm 0.00 in0.0 mm
12:11 AM 37.4°F3.0°C 18.9°F-7.3°C 47% 16.0 mph SW25.7 kmh SW 31.0 mph49.9 kmh 28.73 in972.9 mb 0.00 in0.0 mm 0.00 in0.0 mm 0.00 in0.0 mm
12:10 AM 37.4°F3.0°C 18.9°F-7.3°C 47% 17.0 mph SW27.4 kmh SW 31.0 mph49.9 kmh 28.73 in972.9 mb 0.00 in0.0 mm 0.00 in0.0 mm 0.00 in0.0 mm
12:09 AM 37.2°F2.9°C 18.7°F-7.4°C 47% 18.0 mph WSW29.0 kmh WSW 31.0 mph49.9 kmh 28.73 in972.9 mb 0.00 in0.0 mm 0.00 in0.0 mm 0.00 in0.0 mm
12:08 AM 37.2°F2.9°C 18.7°F-7.4°C 47% 16.0 mph WSW25.7 kmh WSW 31.0 mph49.9 kmh 28.73 in972.9 mb 0.00 in0.0 mm 0.00 in0.0 mm 0.00 in0.0 mm
12:07 AM 37.2°F2.9°C 18.7°F-7.4°C 47% 15.0 mph SW24.1 kmh SW 27.0 mph43.5 kmh 28.73 in972.9 mb 0.00 in0.0 mm 0.00 in0.0 mm 0.00 in0.0 mm
12:06 AM 37.2°F2.9°C 18.7°F-7.4°C 47% 15.0 mph SW24.1 kmh SW 27.0 mph43.5 kmh 28.73 in972.9 mb 0.00 in0.0 mm 0.00 in0.0 mm 0.00 in0.0 mm
12:05 AM 37.0°F2.8°C 18.5°F-7.5°C 47% 17.0 mph SW27.4 kmh SW 27.0 mph43.5 kmh 28.73 in972.9 mb 0.00 in0.0 mm 0.00 in0.0 mm 0.00 in0.0 mm
12:04 AM 37.0°F2.8°C 18.5°F-7.5°C 47% 17.0 mph SW27.4 kmh SW 27.0 mph43.5 kmh 28.73 in972.9 mb 0.00 in0.0 mm 0.00 in0.0 mm 0.00 in0.0 mm
12:03 AM 37.0°F2.8°C 18.5°F-7.5°C 47% 13.0 mph SW20.9 kmh SW 27.0 mph43.5 kmh 28.73 in972.9 mb 0.00 in0.0 mm 0.00 in0.0 mm 0.00 in0.0 mm
12:02 AM 37.0°F2.8°C 18.5°F-7.5°C 47% 13.0 mph SW20.9 kmh SW 31.0 mph49.9 kmh 28.73 in972.9 mb 0.00 in0.0 mm 0.00 in0.0 mm 0.00 in0.0 mm
12:01 AM 37.0°F2.8°C 18.5°F-7.5°C 47% 16.0 mph SW25.7 kmh SW 31.0 mph49.9 kmh 28.73 in972.9 mb 0.00 in0.0 mm 0.00 in0.0 mm 0.00 in0.0 mm
12:00 AM 37.0°F2.8°C 18.5°F-7.5°C 47% 15.0 mph SW24.1 kmh SW 31.0 mph49.9 kmh 28.73 in972.9 mb 0.00 in0.0 mm 0.00 in0.0 mm 0.00 in0.0 mm